Time;durP1;ratioP1;P1;durP2;ratioP2;P2;SDS_P1;SDS_P2;PMS_P1;PMS_P2;Temp;Humidity;BMP_temperature;BMP_pressure;BME280_temperature;BME280_humidity;BME280_pressure;Samples;Min_cycle;Max_cycle;Signal;HPM_P1;HPM_P2
2022/04/07 00:04:50;;;;;;;66.67;37.60;;;9.00;99.90;;;;;;10366678;28;20030;-85
2022/04/07 00:09:51;;;;;;;66.30;38.20;;;8.90;99.90;;;;;;10368177;28;20108;-85
2022/04/07 00:14:51;;;;;;;77.53;38.87;;;8.90;99.90;;;;;;10368347;28;20030;-85
2022/04/07 00:19:52;;;;;;;84.10;43.10;;;8.90;99.90;;;;;;10367437;28;20073;-83
2022/04/07 00:24:52;;;;;;;70.90;37.60;;;8.90;99.90;;;;;;10367494;28;20030;-85
2022/04/07 00:29:53;;;;;;;55.37;29.70;;;8.80;99.90;;;;;;10367774;28;20060;-86
2022/04/07 00:34:54;;;;;;;51.57;28.33;;;8.80;99.90;;;;;;10345246;28;20034;-84
2022/04/07 00:39:55;;;;;;;47.43;26.00;;;8.80;99.90;;;;;;10364966;28;20050;-86
2022/04/07 00:44:55;;;;;;;48.37;26.63;;;8.80;99.90;;;;;;10368172;28;20029;-84
2022/04/07 00:49:56;;;;;;;47.70;26.27;;;8.80;99.90;;;;;;10367224;28;20033;-87
2022/04/07 00:54:58;;;;;;;46.63;25.70;;;8.70;99.90;;;;;;10366690;28;20050;-83
2022/04/07 00:59:59;;;;;;;40.90;24.23;;;8.60;99.90;;;;;;10366783;28;20042;-84
2022/04/07 01:04:59;;;;;;;42.30;24.23;;;8.60;99.90;;;;;;10366546;28;20034;-86
2022/04/07 01:10:00;;;;;;;42.60;24.37;;;8.70;99.90;;;;;;10340932;28;20037;-84
2022/04/07 01:15:04;;;;;;;44.30;22.63;;;8.80;99.90;;;;;;10349590;28;20040;-86
2022/04/07 01:20:06;;;;;;;36.73;20.87;;;8.90;99.90;;;;;;10348554;28;20045;-85
2022/04/07 01:25:08;;;;;;;34.73;19.13;;;8.90;99.90;;;;;;10364035;28;20113;-85
2022/04/07 01:30:09;;;;;;;35.63;20.17;;;9.00;99.90;;;;;;10356746;28;20069;-85
2022/04/07 01:35:10;;;;;;;37.53;19.93;;;9.20;99.90;;;;;;10357857;28;20035;-84
2022/04/07 01:40:15;;;;;;;35.67;22.20;;;9.40;99.90;;;;;;10367069;28;20100;-85
2022/04/07 01:45:16;;;;;;;37.73;19.27;;;9.60;99.90;;;;;;10373522;28;20647;-84
2022/04/07 01:50:20;;;;;;;30.33;17.07;;;9.60;99.90;;;;;;10362381;28;20026;-85
2022/04/07 01:55:22;;;;;;;28.47;17.33;;;9.70;99.90;;;;;;10359936;28;20029;-84
2022/04/07 02:00:23;;;;;;;34.57;19.80;;;9.80;99.90;;;;;;10372635;28;20116;-84
2022/04/07 02:05:23;;;;;;;44.00;23.27;;;9.80;99.90;;;;;;10373572;28;20552;-84
2022/04/07 02:10:26;;;;;;;39.63;23.58;;;9.70;99.90;;;;;;10371582;28;20033;-85
2022/04/07 02:15:27;;;;;;;41.67;25.10;;;9.70;99.90;;;;;;10387646;23;20073;-84
2022/04/07 02:20:27;;;;;;;50.53;27.30;;;9.60;99.90;;;;;;10372756;28;20087;-85
2022/04/07 02:25:29;;;;;;;51.37;26.67;;;9.50;99.90;;;;;;10371068;28;20112;-87
2022/04/07 02:30:30;;;;;;;71.63;38.70;;;9.40;99.90;;;;;;10372118;28;20033;-85
2022/04/07 02:35:30;;;;;;;54.20;27.50;;;9.30;99.90;;;;;;10391825;28;20041;-84
2022/04/07 02:40:31;;;;;;;43.30;23.90;;;9.30;99.90;;;;;;10375857;28;20504;-85
2022/04/07 02:45:32;;;;;;;48.93;31.10;;;9.20;99.90;;;;;;10411035;28;20033;-85
2022/04/07 02:50:33;;;;;;;53.30;36.23;;;9.10;99.90;;;;;;10393403;28;20030;-85
2022/04/07 02:55:33;;;;;;;49.00;32.43;;;9.00;99.90;;;;;;10387199;28;20078;-86
2022/04/07 03:00:35;;;;;;;36.53;23.97;;;8.90;99.90;;;;;;10410701;28;20084;-85
2022/04/07 03:05:36;;;;;;;48.80;31.73;;;8.70;99.90;;;;;;10388274;28;20370;-84
2022/04/07 03:10:37;;;;;;;48.77;29.83;;;8.60;99.90;;;;;;10413169;28;20021;-84
2022/04/07 03:15:37;;;;;;;74.73;39.57;;;8.40;99.90;;;;;;10407890;28;20405;-84
2022/04/07 03:20:38;;;;;;;62.57;32.70;;;8.40;99.90;;;;;;10410178;28;20045;-86
2022/04/07 03:25:38;;;;;;;50.90;30.37;;;8.40;99.90;;;;;;10387696;28;20044;-84
2022/04/07 03:30:39;;;;;;;53.43;34.57;;;8.50;99.90;;;;;;10410556;28;20044;-83
2022/04/07 03:35:40;;;;;;;40.30;25.70;;;8.60;99.90;;;;;;10390135;28;20470;-84
2022/04/07 03:40:41;;;;;;;35.90;22.87;;;8.70;99.90;;;;;;10399891;28;20037;-83
2022/04/07 03:45:41;;;;;;;31.37;20.90;;;8.80;99.90;;;;;;10409085;28;20148;-83
2022/04/07 03:50:42;;;;;;;29.43;19.70;;;8.80;99.90;;;;;;10405234;28;20498;-83
2022/04/07 03:55:42;;;;;;;34.00;20.03;;;9.00;99.90;;;;;;10408486;28;20029;-86
2022/04/07 04:00:43;;;;;;;31.20;19.87;;;9.10;99.90;;;;;;10409136;28;20038;-85
2022/04/07 04:05:44;;;;;;;27.27;17.17;;;9.10;99.90;;;;;;10394671;28;20533;-84
2022/04/07 04:10:46;;;;;;;24.13;16.27;;;9.20;99.90;;;;;;10363928;28;20030;-85
2022/04/07 04:15:46;;;;;;;33.00;19.57;;;9.20;99.90;;;;;;10402418;28;20057;-85
2022/04/07 04:20:47;;;;;;;30.20;19.07;;;9.20;99.90;;;;;;10403696;28;20069;-87
2022/04/07 04:25:47;;;;;;;32.23;20.47;;;9.30;99.90;;;;;;10403209;28;20036;-83
2022/04/07 04:30:48;;;;;;;51.27;29.67;;;9.20;99.90;;;;;;10397296;28;20037;-84
2022/04/07 04:35:49;;;;;;;63.27;37.87;;;9.20;99.90;;;;;;10391780;28;20022;-84
2022/04/07 04:40:50;;;;;;;37.07;23.83;;;9.20;99.90;;;;;;10389049;28;20041;-84
2022/04/07 04:45:50;;;;;;;35.00;21.90;;;9.30;99.90;;;;;;10399893;28;20029;-84
2022/04/07 04:50:51;;;;;;;25.23;15.37;;;9.30;99.90;;;;;;10373178;28;20025;-85
2022/04/07 04:55:51;;;;;;;25.07;16.33;;;9.30;99.90;;;;;;10407051;28;20037;-84
2022/04/07 05:00:52;;;;;;;26.97;14.93;;;9.40;99.90;;;;;;10400624;28;20045;-84
2022/04/07 05:05:53;;;;;;;24.23;14.77;;;9.50;99.90;;;;;;10401557;28;20059;-84
2022/04/07 05:10:53;;;;;;;27.77;17.20;;;9.60;99.90;;;;;;10408264;28;20026;-85
2022/04/07 05:15:54;;;;;;;25.67;14.83;;;9.70;99.90;;;;;;10415794;28;20527;-85
2022/04/07 05:20:54;;;;;;;25.50;15.13;;;9.80;99.90;;;;;;10416369;28;20041;-84
2022/04/07 05:25:55;;;;;;;33.63;17.13;;;9.90;99.90;;;;;;10416213;28;20063;-84
2022/04/07 05:30:56;;;;;;;26.90;16.15;;;10.00;99.90;;;;;;10416450;28;20034;-84
2022/04/07 05:35:57;;;;;;;26.38;15.48;;;10.10;99.90;;;;;;10415709;28;20160;-83
2022/04/07 05:40:57;;;;;;;28.30;16.08;;;10.20;99.90;;;;;;10415353;28;20435;-84
2022/04/07 05:45:58;;;;;;;35.42;18.77;;;10.40;99.90;;;;;;10415914;28;20525;-83
2022/04/07 05:50:59;;;;;;;19.30;11.38;;;10.50;99.90;;;;;;10398019;28;20029;-84
2022/04/07 05:56:00;;;;;;;17.63;9.50;;;10.60;99.90;;;;;;10415410;28;20056;-85
2022/04/07 06:01:01;;;;;;;16.45;8.82;;;10.80;99.90;;;;;;10415172;28;20551;-84
2022/04/07 06:06:01;;;;;;;14.52;7.45;;;11.00;99.90;;;;;;10396524;28;20068;-84
2022/04/07 06:11:02;;;;;;;12.20;7.00;;;11.20;99.90;;;;;;10394856;28;20032;-83
2022/04/07 06:16:03;;;;;;;13.25;6.28;;;11.40;99.90;;;;;;10415221;28;20148;-84
2022/04/07 06:21:03;;;;;;;8.15;5.13;;;11.50;99.90;;;;;;10413967;28;20129;-83
2022/04/07 06:26:04;;;;;;;10.80;5.97;;;11.60;99.90;;;;;;10413851;28;20033;-85
2022/04/07 06:31:04;;;;;;;11.48;6.95;;;11.50;99.90;;;;;;10413789;28;20432;-84
2022/04/07 06:36:06;;;;;;;13.55;7.20;;;11.60;99.90;;;;;;10413628;28;20108;-83
2022/04/07 06:41:06;;;;;;;10.32;5.53;;;11.60;99.90;;;;;;10413737;28;20040;-83
2022/04/07 06:46:07;;;;;;;7.85;5.28;;;11.70;99.40;;;;;;10413493;28;20037;-83
2022/04/07 06:51:09;;;;;;;7.15;4.75;;;11.80;99.40;;;;;;10413166;28;20411;-83
2022/04/07 06:56:10;;;;;;;10.50;5.38;;;12.00;99.00;;;;;;10394690;28;20448;-85
2022/04/07 07:01:10;;;;;;;11.13;5.40;;;12.00;97.70;;;;;;10412905;28;20056;-83
2022/04/07 07:06:11;;;;;;;9.68;4.90;;;12.10;96.90;;;;;;10413535;28;20524;-83
2022/04/07 07:11:12;;;;;;;8.15;5.28;;;12.20;96.10;;;;;;10411920;28;20042;-84
2022/04/07 07:16:12;;;;;;;10.18;5.75;;;12.30;95.10;;;;;;10412336;28;20473;-83
2022/04/07 07:21:14;;;;;;;14.50;6.93;;;12.40;94.70;;;;;;10411366;28;20037;-84
2022/04/07 07:26:14;;;;;;;12.75;7.22;;;12.50;95.40;;;;;;10411662;28;20028;-84
2022/04/07 07:31:15;;;;;;;10.93;4.70;;;12.60;94.90;;;;;;10411227;28;20032;-83
2022/04/07 07:36:15;;;;;;;9.82;5.13;;;12.90;94.00;;;;;;10411141;28;20450;-84
2022/04/07 07:41:16;;;;;;;10.48;5.32;;;13.10;93.30;;;;;;10410799;28;20055;-83
2022/04/07 07:46:17;;;;;;;8.80;3.85;;;13.30;93.10;;;;;;10410598;28;20084;-82
2022/04/07 07:51:17;;;;;;;8.00;4.10;;;13.30;91.80;;;;;;10411705;28;20038;-80
2022/04/07 07:56:18;;;;;;;9.02;4.10;;;13.40;91.80;;;;;;10410208;28;20642;-83
2022/04/07 08:01:18;;;;;;;7.30;3.83;;;13.70;91.80;;;;;;10392431;28;20445;-80
2022/04/07 08:06:19;;;;;;;13.65;7.22;;;14.00;90.80;;;;;;10410055;28;20026;-81
2022/04/07 08:11:19;;;;;;;8.13;4.00;;;14.30;91.20;;;;;;10409655;28;20025;-80
2022/04/07 08:16:20;;;;;;;14.27;7.45;;;14.70;89.00;;;;;;10409322;28;20112;-80
2022/04/07 08:21:21;;;;;;;4.55;2.85;;;15.00;88.50;;;;;;10409189;28;20037;-81
2022/04/07 08:26:22;;;;;;;5.10;2.50;;;15.20;86.40;;;;;;10409768;28;20033;-80
2022/04/07 08:31:23;;;;;;;5.70;3.20;;;15.40;85.30;;;;;;10409454;28;20160;-81
2022/04/07 08:36:24;;;;;;;5.13;2.30;;;15.40;82.00;;;;;;10409025;28;20152;-81
2022/04/07 08:41:31;;;;;;;5.50;3.38;;;15.50;80.80;;;;;;10408821;28;20159;-80
2022/04/07 08:46:32;;;;;;;4.28;2.92;;;15.60;80.90;;;;;;10408168;28;20044;-81
2022/04/07 08:51:34;;;;;;;11.18;5.78;;;15.90;80.20;;;;;;10408984;28;20174;-82
2022/04/07 08:56:35;;;;;;;7.28;5.10;;;16.10;80.30;;;;;;10408919;28;20493;-81
2022/04/07 09:01:35;;;;;;;4.18;2.45;;;16.30;79.30;;;;;;10390440;28;20038;-81
2022/04/07 09:06:39;;;;;;;4.57;2.33;;;16.50;78.90;;;;;;10408161;28;20032;-81
2022/04/07 09:11:39;;;;;;;9.55;4.30;;;16.90;78.20;;;;;;10408000;28;20554;-81
2022/04/07 09:16:41;;;;;;;10.10;4.32;;;17.40;76.70;;;;;;10408401;28;20049;-82
2022/04/07 09:21:41;;;;;;;8.20;4.32;;;17.90;76.40;;;;;;10407685;28;20667;-84
2022/04/07 09:26:44;;;;;;;11.48;5.88;;;17.90;73.90;;;;;;10407707;28;20030;-82
2022/04/07 09:31:53;;;;;;;6.30;3.00;;;17.80;74.60;;;;;;10407655;28;20022;-82
2022/04/07 09:37:07;;;;;;;8.63;4.03;;;17.70;73.50;;;;;;10407660;28;20029;-82
2022/04/07 09:42:22;;;;;;;2.78;2.20;;;17.50;74.00;;;;;;10407415;28;20120;-81
2022/04/07 09:47:23;;;;;;;3.50;1.48;;;17.20;72.60;;;;;;10407269;28;20371;-81
2022/04/07 09:52:24;;;;;;;4.95;1.60;;;16.70;73.30;;;;;;10407288;28;20061;-81
2022/04/07 09:57:26;;;;;;;3.90;2.15;;;16.40;75.00;;;;;;10409152;28;20022;-80
2022/04/07 10:02:27;;;;;;;3.00;1.92;;;16.10;75.50;;;;;;10415337;28;20080;-83
2022/04/07 10:07:28;;;;;;;3.17;2.25;;;15.70;76.90;;;;;;10414919;28;20544;-81
2022/04/07 10:12:32;;;;;;;3.63;1.98;;;16.20;78.30;;;;;;10414569;28;20060;-83
2022/04/07 10:17:35;;;;;;;5.88;2.70;;;16.90;77.70;;;;;;10414075;28;20498;-83
2022/04/07 10:22:54;;;;;;;2.40;1.70;;;17.00;75.10;;;;;;10413721;28;20120;-82
2022/04/07 10:27:58;;;;;;;3.17;2.20;;;17.20;75.60;;;;;;10414225;28;20021;-82
2022/04/07 10:32:59;;;;;;;2.25;1.90;;;17.70;77.00;;;;;;10413523;28;20096;-80
2022/04/07 10:38:10;;;;;;;4.15;3.20;;;17.70;73.10;;;;;;10396271;28;20025;-80
2022/04/07 10:43:20;;;;;;;3.10;2.20;;;17.70;72.70;;;;;;10413484;28;20584;-81
2022/04/07 10:48:24;;;;;;;3.67;2.65;;;17.90;74.70;;;;;;10413410;28;20478;-81
2022/04/07 10:53:39;;;;;;;3.63;2.13;;;18.00;72.70;;;;;;10412622;28;20512;-81
2022/04/07 10:58:42;;;;;;;2.10;1.60;;;18.30;74.50;;;;;;10394947;28;20121;-80
2022/04/07 11:04:20;;;;;;;4.10;1.30;;;18.60;72.50;;;;;;10413081;28;20048;-82
2022/04/07 11:09:22;;;;;;;5.25;3.13;;;18.40;70.50;;;;;;10411171;28;20025;-82
2022/04/07 11:14:27;;;;;;;3.30;2.42;;;17.70;70.70;;;;;;10412314;28;20032;-82
2022/04/07 11:19:50;;;;;;;3.90;2.17;;;17.50;72.30;;;;;;10411980;28;20049;-80
2022/04/07 11:24:54;;;;;;;5.47;2.55;;;17.60;72.90;;;;;;10411660;28;20033;-81
2022/04/07 11:30:05;;;;;;;2.75;1.83;;;17.20;73.50;;;;;;10411951;28;20469;-81
2022/04/07 11:35:16;;;;;;;3.40;1.77;;;17.50;73.70;;;;;;10409410;28;20087;-81
2022/04/07 11:40:16;;;;;;;4.20;1.90;;;17.90;72.20;;;;;;10410178;28;20541;-82
2022/04/07 11:45:18;;;;;;;3.35;1.80;;;18.30;71.40;;;;;;10391333;28;20031;-81
2022/04/07 11:50:19;;;;;;;3.58;1.88;;;18.70;71.00;;;;;;10407575;28;20025;-79
2022/04/07 11:55:30;;;;;;;3.88;1.70;;;18.70;68.60;;;;;;10409876;28;20056;-83
2022/04/07 12:00:32;;;;;;;3.47;1.80;;;18.00;69.20;;;;;;10410504;28;20440;-83
2022/04/07 12:05:40;;;;;;;2.65;1.27;;;17.60;70.60;;;;;;10408094;28;20140;-83
2022/04/07 12:10:45;;;;;;;3.47;2.25;;;17.20;70.50;;;;;;10409053;28;20044;-83
2022/04/07 12:15:46;;;;;;;5.23;1.70;;;17.00;74.00;;;;;;10407923;28;20076;-82
2022/04/07 12:21:01;;;;;;;2.35;1.52;;;17.30;72.40;;;;;;10407578;28;20037;-82
2022/04/07 12:26:02;;;;;;;3.67;2.07;;;17.70;72.50;;;;;;10406198;28;20064;-82
2022/04/07 12:31:02;;;;;;;3.40;1.65;;;18.60;71.50;;;;;;10406045;28;20021;-83
2022/04/07 12:36:07;;;;;;;3.33;1.90;;;18.70;69.60;;;;;;10404639;28;20033;-81
2022/04/07 12:41:16;;;;;;;9.90;4.17;;;18.80;70.70;;;;;;10402835;28;20120;-83
2022/04/07 12:46:19;;;;;;;10.82;6.13;;;18.70;67.50;;;;;;10402165;28;20033;-82
2022/04/07 12:51:22;;;;;;;3.30;1.90;;;18.50;69.90;;;;;;10404560;28;20550;-83
2022/04/07 12:56:27;;;;;;;3.58;1.75;;;18.60;69.10;;;;;;10405410;28;20032;-83
2022/04/07 13:01:29;;;;;;;3.17;1.70;;;18.60;68.70;;;;;;10406168;28;20092;-83
2022/04/07 13:06:30;;;;;;;4.82;2.35;;;18.10;69.20;;;;;;10406859;28;20516;-82
2022/04/07 13:11:33;;;;;;;2.40;1.50;;;18.30;70.60;;;;;;10399509;28;20088;-83
2022/04/07 13:16:34;;;;;;;2.38;1.70;;;18.70;70.00;;;;;;10404862;28;20559;-83
2022/04/07 13:21:37;;;;;;;2.13;1.60;;;19.00;68.70;;;;;;10390522;28;20046;-84
2022/04/07 13:26:38;;;;;;;2.22;1.60;;;19.00;68.00;;;;;;10397735;28;20124;-83
2022/04/07 13:31:38;;;;;;;13.57;2.00;;;18.80;67.40;;;;;;10403897;28;20105;-85
2022/04/07 13:36:39;;;;;;;3.40;1.58;;;18.80;67.30;;;;;;10408601;28;20036;-84
2022/04/07 13:41:40;;;;;;;2.85;1.52;;;18.70;68.50;;;;;;10412680;28;20034;-85
2022/04/07 13:46:41;;;;;;;2.42;1.83;;;18.90;68.60;;;;;;10391523;28;20466;-86
2022/04/07 13:51:42;;;;;;;2.60;1.80;;;18.90;68.70;;;;;;10396768;28;20042;-85
2022/04/07 13:56:42;;;;;;;3.67;1.85;;;18.90;69.00;;;;;;10412806;28;20528;-83
2022/04/07 14:01:43;;;;;;;2.25;1.60;;;18.70;67.20;;;;;;10410859;28;20033;-85
2022/04/07 14:06:43;;;;;;;2.15;1.52;;;18.40;68.60;;;;;;10409973;28;20017;-86
2022/04/07 14:11:44;;;;;;;3.17;1.65;;;18.10;69.10;;;;;;10410654;28;20028;-84
2022/04/07 14:16:45;;;;;;;2.42;1.70;;;17.90;69.50;;;;;;10410405;28;20369;-83
2022/04/07 14:21:45;;;;;;;2.35;1.83;;;17.40;70.80;;;;;;10411109;28;20397;-83
2022/04/07 14:26:46;;;;;;;4.65;1.70;;;17.10;72.10;;;;;;10394536;28;20417;-84
2022/04/07 14:31:47;;;;;;;3.83;2.42;;;17.10;72.20;;;;;;10411018;28;20108;-84
2022/04/07 14:36:47;;;;;;;4.38;2.20;;;17.00;72.40;;;;;;10412069;28;20029;-84
2022/04/07 14:41:48;;;;;;;4.28;1.90;;;16.90;72.60;;;;;;10411922;28;20562;-84
2022/04/07 14:46:48;;;;;;;3.28;1.83;;;16.80;72.90;;;;;;10399693;28;20033;-82
2022/04/07 14:51:53;;;;;;;4.72;2.00;;;16.60;73.50;;;;;;10403829;28;20728;-82
2022/04/07 14:56:54;;;;;;;6.13;3.22;;;16.60;73.60;;;;;;10398818;28;20024;-83
2022/04/07 15:01:54;;;;;;;5.13;3.50;;;16.60;74.10;;;;;;10407576;28;20374;-86
2022/04/07 15:06:55;;;;;;;19.83;17.00;;;16.80;73.10;;;;;;10392034;28;20079;-83
2022/04/07 15:11:56;;;;;;;21.60;9.68;;;16.80;71.90;;;;;;10398022;28;20032;-82
2022/04/07 15:16:56;;;;;;;2.97;1.33;;;16.60;70.40;;;;;;10408491;28;20057;-85
2022/04/07 15:21:57;;;;;;;3.22;2.03;;;16.40;70.00;;;;;;10384591;28;20042;-85
2022/04/07 15:26:58;;;;;;;4.32;2.40;;;16.40;70.50;;;;;;10382231;28;20025;-88
2022/04/07 15:31:59;;;;;;;4.93;2.65;;;16.30;71.00;;;;;;10405314;28;20040;-83
2022/04/07 15:37:00;;;;;;;6.78;5.20;;;16.30;70.80;;;;;;10397112;28;20570;-85
2022/04/07 15:42:00;;;;;;;25.58;11.85;;;16.30;70.50;;;;;;10405169;28;20037;-85
2022/04/07 15:47:01;;;;;;;5.65;3.67;;;16.10;70.00;;;;;;10409638;28;20220;-82
2022/04/07 15:52:01;;;;;;;10.02;5.03;;;16.00;71.00;;;;;;10404945;28;20141;-81
2022/04/07 15:57:03;;;;;;;3.50;2.05;;;15.80;70.80;;;;;;10406646;28;20034;-82
2022/04/07 16:02:04;;;;;;;6.40;3.15;;;15.80;70.60;;;;;;10396448;28;20037;-81
2022/04/07 16:07:05;;;;;;;7.95;4.13;;;15.60;70.70;;;;;;10373387;28;20092;-84
2022/04/07 16:12:06;;;;;;;37.28;17.80;;;15.60;71.50;;;;;;10388232;28;20029;-82
2022/04/07 16:17:09;;;;;;;5.78;3.15;;;15.50;72.60;;;;;;10317070;23;20154;-84
2022/04/07 16:22:10;;;;;;;30.80;14.43;;;15.50;72.20;;;;;;10304506;28;20038;-82
2022/04/07 16:27:10;;;;;;;22.05;10.10;;;15.50;72.30;;;;;;10289268;28;20034;-82
2022/04/07 16:32:11;;;;;;;7.18;4.20;;;15.50;73.20;;;;;;10290498;28;20383;-84
2022/04/07 16:37:12;;;;;;;13.25;7.65;;;15.30;73.40;;;;;;10327141;28;20061;-85
2022/04/07 16:42:12;;;;;;;18.25;8.25;;;15.30;73.90;;;;;;10304968;28;20038;-82
2022/04/07 16:47:13;;;;;;;8.30;4.70;;;15.20;73.30;;;;;;10310953;28;20394;-85
2022/04/07 16:52:14;;;;;;;12.55;6.30;;;15.10;73.70;;;;;;10331243;28;20018;-82
2022/04/07 16:57:17;;;;;;;5.53;2.70;;;15.10;73.80;;;;;;10333209;28;20158;-85
2022/04/07 17:02:17;;;;;;;9.63;4.40;;;15.10;73.00;;;;;;10324922;28;20062;-84
2022/04/07 17:07:18;;;;;;;9.00;4.88;;;15.10;73.00;;;;;;10319438;28;20109;-84
2022/04/07 17:12:19;;;;;;;9.32;4.85;;;15.00;72.90;;;;;;10329480;28;20018;-85
2022/04/07 17:17:19;;;;;;;11.00;6.03;;;15.00;72.90;;;;;;10326019;28;20022;-83
2022/04/07 17:22:21;;;;;;;4.43;2.70;;;15.00;73.90;;;;;;10325225;28;20049;-84
2022/04/07 17:27:43;;;;;;;5.97;3.33;;;14.90;74.30;;;;;;10320934;28;20041;-85
2022/04/07 17:33:13;;;;;;;10.65;3.97;;;14.90;73.90;;;;;;10305005;28;20034;-87
2022/04/07 17:38:15;;;;;;;5.38;3.28;;;14.80;73.50;;;;;;10315304;28;20103;-82
2022/04/07 17:43:16;;;;;;;6.13;3.22;;;14.80;74.50;;;;;;10320337;28;20038;-82
2022/04/07 17:48:17;;;;;;;13.88;8.35;;;14.70;75.10;;;;;;10310590;28;20019;-85
2022/04/07 17:53:18;;;;;;;16.90;7.20;;;14.70;75.20;;;;;;10301195;28;20036;-82
2022/04/07 17:58:18;;;;;;;12.63;5.00;;;14.70;75.30;;;;;;10304626;28;20425;-81
2022/04/07 18:03:19;;;;;;;11.15;5.10;;;14.60;74.80;;;;;;10306605;28;20046;-81
2022/04/07 18:08:19;;;;;;;16.00;7.28;;;14.60;76.10;;;;;;10316908;28;20429;-81
2022/04/07 18:13:21;;;;;;;23.20;12.15;;;14.60;75.10;;;;;;10316755;28;20053;-81
2022/04/07 18:18:21;;;;;;;12.85;5.90;;;14.50;75.40;;;;;;10299584;28;20058;-81
2022/04/07 18:23:22;;;;;;;7.22;4.07;;;14.50;75.30;;;;;;10314515;28;20122;-82
2022/04/07 18:28:22;;;;;;;9.43;3.63;;;14.50;75.30;;;;;;10307128;28;20065;-82
2022/04/07 18:33:23;;;;;;;7.45;3.72;;;14.50;75.00;;;;;;10318462;28;20034;-84
2022/04/07 18:38:24;;;;;;;8.13;3.80;;;14.50;75.10;;;;;;10314140;28;20034;-82
2022/04/07 18:43:25;;;;;;;5.15;3.00;;;14.40;74.70;;;;;;10297373;28;20138;-81
2022/04/07 18:48:25;;;;;;;10.38;6.05;;;14.40;74.70;;;;;;10326856;28;20056;-83
2022/04/07 18:53:26;;;;;;;7.10;3.65;;;14.30;74.70;;;;;;10308345;28;20027;-82
2022/04/07 18:58:27;;;;;;;5.85;3.55;;;14.20;75.70;;;;;;10317854;28;20033;-81
2022/04/07 19:03:28;;;;;;;8.52;3.60;;;14.20;74.90;;;;;;10329949;28;20438;-83
2022/04/07 19:08:29;;;;;;;5.28;2.97;;;14.20;75.10;;;;;;10318706;28;20088;-82
2022/04/07 19:13:30;;;;;;;4.07;2.45;;;14.20;74.50;;;;;;10327279;28;20073;-82
2022/04/07 19:18:30;;;;;;;5.97;3.35;;;14.20;74.80;;;;;;10329036;28;20080;-82
2022/04/07 19:23:42;;;;;;;4.53;2.58;;;14.20;74.70;;;;;;10316237;28;20072;-83
2022/04/07 19:28:43;;;;;;;4.78;2.88;;;14.20;74.50;;;;;;10326400;28;20719;-81
2022/04/07 19:33:44;;;;;;;7.00;2.40;;;14.20;75.00;;;;;;10328124;28;20037;-82
2022/04/07 19:38:45;;;;;;;4.40;2.17;;;14.20;75.40;;;;;;10320285;28;20042;-82
2022/04/07 19:43:45;;;;;;;5.57;2.55;;;14.10;74.80;;;;;;10329198;28;20027;-83
2022/04/07 19:48:51;;;;;;;5.38;2.78;;;14.10;74.70;;;;;;10313002;28;20485;-82
2022/04/07 19:53:51;;;;;;;20.80;9.05;;;14.20;75.10;;;;;;10315363;28;20036;-82
2022/04/07 19:58:52;;;;;;;5.05;2.55;;;14.20;74.50;;;;;;10303611;28;20519;-80
2022/04/07 20:03:53;;;;;;;6.93;2.15;;;14.30;74.50;;;;;;10324944;28;20687;-81
2022/04/07 20:08:55;;;;;;;7.15;2.28;;;14.40;74.10;;;;;;10328973;28;20077;-83
2022/04/07 20:13:55;;;;;;;6.53;1.80;;;14.50;73.90;;;;;;10326644;28;20405;-82
2022/04/07 20:18:57;;;;;;;4.60;1.88;;;14.60;73.70;;;;;;10325373;28;20041;-85
2022/04/07 20:23:57;;;;;;;4.38;2.05;;;14.60;73.90;;;;;;10307696;28;20122;-81
2022/04/07 20:28:58;;;;;;;8.02;2.90;;;14.60;74.00;;;;;;10305075;28;20102;-82
2022/04/07 20:33:59;;;;;;;5.05;2.70;;;14.70;74.60;;;;;;10325522;28;20040;-83
2022/04/07 20:38:59;;;;;;;4.78;2.50;;;14.50;77.10;;;;;;10327916;28;20038;-82
2022/04/07 20:44:00;;;;;;;17.90;2.42;;;14.30;78.20;;;;;;10320921;28;20031;-81
2022/04/07 20:49:01;;;;;;;4.95;2.33;;;14.20;79.10;;;;;;10326108;28;20446;-81
2022/04/07 20:54:02;;;;;;;6.70;2.20;;;14.20;78.40;;;;;;10326610;28;20442;-81
2022/04/07 20:59:03;;;;;;;7.40;2.53;;;14.20;77.90;;;;;;10327116;28;20076;-81
2022/04/07 21:04:03;;;;;;;7.85;2.33;;;14.20;77.90;;;;;;10308541;28;20065;-80
2022/04/07 21:09:04;;;;;;;3.00;1.45;;;14.10;79.40;;;;;;10327039;28;20030;-83
2022/04/07 21:14:05;;;;;;;5.88;2.00;;;14.10;80.70;;;;;;10326738;28;20046;-82
2022/04/07 21:19:07;;;;;;;3.50;1.60;;;13.90;80.80;;;;;;10326783;28;20034;-83
2022/04/07 21:24:08;;;;;;;16.40;4.75;;;13.80;80.50;;;;;;10326118;28;20022;-81
2022/04/07 21:29:09;;;;;;;3.40;1.90;;;13.80;81.00;;;;;;10307295;28;20029;-81
2022/04/07 21:34:10;;;;;;;3.05;1.65;;;13.70;81.00;;;;;;10319383;28;20042;-82
2022/04/07 21:39:14;;;;;;;3.92;2.20;;;13.70;81.00;;;;;;10308167;28;20069;-82
2022/04/07 21:44:14;;;;;;;2.35;1.30;;;13.80;82.00;;;;;;10324783;28;20035;-82
2022/04/07 21:49:15;;;;;;;4.28;1.60;;;13.80;81.50;;;;;;10325996;28;20037;-82
2022/04/07 21:54:16;;;;;;;9.38;2.30;;;13.80;81.60;;;;;;10320651;23;20124;-83
2022/04/07 21:59:17;;;;;;;3.00;1.52;;;13.70;81.60;;;;;;10315497;28;20042;-82
2022/04/07 22:04:17;;;;;;;3.83;1.42;;;13.70;81.90;;;;;;10300756;28;20043;-81
2022/04/07 22:09:18;;;;;;;4.43;1.30;;;13.70;84.80;;;;;;10293266;28;20062;-81
2022/04/07 22:14:19;;;;;;;2.72;1.10;;;13.10;91.00;;;;;;10300034;28;20065;-82
2022/04/07 22:19:20;;;;;;;1.97;1.37;;;12.00;99.90;;;;;;10304375;28;20043;-82
2022/04/07 22:24:20;;;;;;;2.10;1.43;;;10.70;99.90;;;;;;10292137;28;20117;-82
2022/04/07 22:29:21;;;;;;;7.93;5.17;;;9.70;99.90;;;;;;10316069;28;20360;-82
2022/04/07 22:34:22;;;;;;;2.90;1.80;;;9.30;99.90;;;;;;10323403;28;20786;-82
2022/04/07 22:39:22;;;;;;;3.93;2.60;;;9.00;99.90;;;;;;10366589;28;20049;-83
2022/04/07 22:44:23;;;;;;;3.50;2.30;;;8.90;99.90;;;;;;10362615;28;20026;-83
2022/04/07 22:49:24;;;;;;;4.27;2.10;;;8.80;99.90;;;;;;10369432;28;20034;-81
2022/04/07 22:54:25;;;;;;;3.73;2.10;;;8.70;99.90;;;;;;10400639;28;20085;-83
2022/04/07 22:59:25;;;;;;;5.37;2.10;;;8.70;99.90;;;;;;10412026;28;20025;-83
2022/04/07 23:04:26;;;;;;;3.57;2.00;;;8.60;99.90;;;;;;10389230;28;20029;-81
2022/04/07 23:09:27;;;;;;;4.30;1.90;;;8.60;99.90;;;;;;10371656;28;20044;-83
2022/04/07 23:14:30;;;;;;;5.57;2.30;;;8.60;99.90;;;;;;10376465;28;20029;-82
2022/04/07 23:19:31;;;;;;;6.70;2.37;;;8.60;99.90;;;;;;10391299;28;20034;-82
2022/04/07 23:24:32;;;;;;;5.63;2.10;;;8.60;99.90;;;;;;10371384;28;20104;-83
2022/04/07 23:29:32;;;;;;;7.17;3.80;;;8.60;99.90;;;;;;10381254;28;20030;-84
2022/04/07 23:34:34;;;;;;;3.77;2.57;;;8.50;99.90;;;;;;10375489;28;20060;-82
2022/04/07 23:39:35;;;;;;;3.30;1.60;;;8.40;99.90;;;;;;10370695;28;20641;-83
2022/04/07 23:44:39;;;;;;;9.40;4.20;;;8.40;99.90;;;;;;10352637;28;20029;-83
2022/04/07 23:49:40;;;;;;;5.73;3.10;;;8.30;99.90;;;;;;10382454;28;20519;-83
2022/04/07 23:54:40;;;;;;;3.43;1.07;;;8.20;99.90;;;;;;10410682;28;20056;-84
2022/04/07 23:59:41;;;;;;;3.13;1.10;;;8.10;99.90;;;;;;10396741;28;20045;-83
